sensor_id;sensor_type;location;lat;lon;timestamp;P1;durP1;ratioP1;P2;durP2;ratioP2
44304;SDS011;30019;50.576;8.568;2024-03-23T00:54:19;49.20;;;26.42;;
44304;SDS011;30019;50.576;8.568;2024-03-23T00:56:45;58.78;;;29.30;;
44304;SDS011;30019;50.576;8.568;2024-03-23T00:59:11;65.93;;;32.45;;
44304;SDS011;30019;50.576;8.568;2024-03-23T01:01:38;58.45;;;29.70;;
44304;SDS011;30019;50.576;8.568;2024-03-23T01:04:04;55.80;;;30.10;;
44304;SDS011;30019;50.576;8.568;2024-03-23T01:06:30;54.58;;;29.35;;
44304;SDS011;30019;50.576;8.568;2024-03-23T01:08:56;57.38;;;29.50;;
44304;SDS011;30019;50.576;8.568;2024-03-23T01:11:22;57.97;;;30.30;;
44304;SDS011;30019;50.576;8.568;2024-03-23T01:13:48;58.63;;;29.77;;
44304;SDS011;30019;50.576;8.568;2024-03-23T01:16:14;54.80;;;28.38;;
44304;SDS011;30019;50.576;8.568;2024-03-23T01:18:40;54.38;;;29.38;;
44304;SDS011;30019;50.576;8.568;2024-03-23T01:21:06;57.28;;;28.92;;
44304;SDS011;30019;50.576;8.568;2024-03-23T01:23:32;53.60;;;29.67;;
44304;SDS011;30019;50.576;8.568;2024-03-23T01:25:58;57.75;;;29.95;;
44304;SDS011;30019;50.576;8.568;2024-03-23T01:28:24;53.13;;;28.15;;
44304;SDS011;30019;50.576;8.568;2024-03-23T01:30:50;55.05;;;28.75;;
44304;SDS011;30019;50.576;8.568;2024-03-23T01:33:16;57.28;;;28.55;;
44304;SDS011;30019;50.576;8.568;2024-03-23T01:35:42;52.88;;;28.27;;
44304;SDS011;30019;50.576;8.568;2024-03-23T01:38:08;53.42;;;28.50;;
44304;SDS011;30019;50.576;8.568;2024-03-23T01:40:34;55.70;;;27.33;;
44304;SDS011;30019;50.576;8.568;2024-03-23T01:43:04;45.67;;;25.67;;
44304;SDS011;30019;50.576;8.568;2024-03-23T01:45:31;48.45;;;26.77;;
44304;SDS011;30019;50.576;8.568;2024-03-23T01:47:58;54.70;;;28.25;;
44304;SDS011;30019;50.576;8.568;2024-03-23T01:50:24;60.08;;;27.58;;
44304;SDS011;30019;50.576;8.568;2024-03-23T01:52:50;48.92;;;28.25;;
44304;SDS011;30019;50.576;8.568;2024-03-23T01:55:16;55.30;;;27.42;;
44304;SDS011;30019;50.576;8.568;2024-03-23T01:57:42;49.05;;;27.13;;
44304;SDS011;30019;50.576;8.568;2024-03-23T02:00:08;58.85;;;29.52;;
44304;SDS011;30019;50.576;8.568;2024-03-23T02:02:40;62.53;;;30.95;;
44304;SDS011;30019;50.576;8.568;2024-03-23T02:05:06;60.33;;;31.50;;
44304;SDS011;30019;50.576;8.568;2024-03-23T02:07:33;59.00;;;30.30;;
44304;SDS011;30019;50.576;8.568;2024-03-23T02:09:59;62.50;;;30.50;;
44304;SDS011;30019;50.576;8.568;2024-03-23T02:12:25;59.22;;;30.00;;
44304;SDS011;30019;50.576;8.568;2024-03-23T02:14:51;54.33;;;29.80;;
44304;SDS011;30019;50.576;8.568;2024-03-23T02:17:17;61.55;;;30.15;;
44304;SDS011;30019;50.576;8.568;2024-03-23T02:19:45;58.33;;;30.77;;
44304;SDS011;30019;50.576;8.568;2024-03-23T02:22:11;57.67;;;30.13;;
44304;SDS011;30019;50.576;8.568;2024-03-23T02:24:37;69.65;;;32.58;;
44304;SDS011;30019;50.576;8.568;2024-03-23T02:27:03;60.58;;;29.85;;
44304;SDS011;30019;50.576;8.568;2024-03-23T02:29:29;59.65;;;30.80;;
44304;SDS011;30019;50.576;8.568;2024-03-23T02:31:55;60.88;;;31.08;;
44304;SDS011;30019;50.576;8.568;2024-03-23T02:34:23;58.55;;;30.42;;
44304;SDS011;30019;50.576;8.568;2024-03-23T02:36:49;59.80;;;29.95;;
44304;SDS011;30019;50.576;8.568;2024-03-23T02:39:15;59.92;;;29.98;;
44304;SDS011;30019;50.576;8.568;2024-03-23T02:41:41;60.85;;;30.88;;
44304;SDS011;30019;50.576;8.568;2024-03-23T02:44:07;58.30;;;30.42;;
44304;SDS011;30019;50.576;8.568;2024-03-23T02:46:36;64.18;;;32.40;;
44304;SDS011;30019;50.576;8.568;2024-03-23T02:49:02;65.47;;;31.50;;
44304;SDS011;30019;50.576;8.568;2024-03-23T02:51:29;60.28;;;30.63;;
44304;SDS011;30019;50.576;8.568;2024-03-23T02:53:55;64.00;;;31.58;;
44304;SDS011;30019;50.576;8.568;2024-03-23T02:56:21;65.35;;;31.73;;
44304;SDS011;30019;50.576;8.568;2024-03-23T02:58:47;67.30;;;32.45;;
44304;SDS011;30019;50.576;8.568;2024-03-23T03:01:13;65.15;;;31.23;;
44304;SDS011;30019;50.576;8.568;2024-03-23T03:03:39;60.85;;;31.10;;
44304;SDS011;30019;50.576;8.568;2024-03-23T03:06:06;61.22;;;31.05;;
44304;SDS011;30019;50.576;8.568;2024-03-23T03:08:32;65.30;;;32.63;;
44304;SDS011;30019;50.576;8.568;2024-03-23T03:10:58;63.58;;;33.53;;
44304;SDS011;30019;50.576;8.568;2024-03-23T03:13:24;65.78;;;34.28;;
44304;SDS011;30019;50.576;8.568;2024-03-23T03:15:50;66.72;;;34.05;;
44304;SDS011;30019;50.576;8.568;2024-03-23T03:18:16;78.65;;;35.83;;
44304;SDS011;30019;50.576;8.568;2024-03-23T03:20:42;81.78;;;35.05;;
44304;SDS011;30019;50.576;8.568;2024-03-23T03:23:08;78.97;;;36.70;;
44304;SDS011;30019;50.576;8.568;2024-03-23T03:25:34;76.75;;;36.15;;
44304;SDS011;30019;50.576;8.568;2024-03-23T03:28:00;81.20;;;36.67;;
44304;SDS011;30019;50.576;8.568;2024-03-23T03:30:26;75.07;;;34.42;;
44304;SDS011;30019;50.576;8.568;2024-03-23T03:32:53;75.88;;;36.40;;
44304;SDS011;30019;50.576;8.568;2024-03-23T03:35:20;86.07;;;38.15;;
44304;SDS011;30019;50.576;8.568;2024-03-23T03:37:46;95.38;;;40.90;;
44304;SDS011;30019;50.576;8.568;2024-03-23T03:40:12;97.93;;;40.92;;
44304;SDS011;30019;50.576;8.568;2024-03-23T03:42:39;95.28;;;38.70;;
44304;SDS011;30019;50.576;8.568;2024-03-23T03:45:06;87.13;;;37.70;;
44304;SDS011;30019;50.576;8.568;2024-03-23T03:47:32;77.85;;;32.22;;
44304;SDS011;30019;50.576;8.568;2024-03-23T03:49:58;73.88;;;31.30;;
44304;SDS011;30019;50.576;8.568;2024-03-23T03:52:24;41.05;;;19.60;;
44304;SDS011;30019;50.576;8.568;2024-03-23T03:54:50;29.73;;;14.40;;
44304;SDS011;30019;50.576;8.568;2024-03-23T03:57:17;21.40;;;10.77;;
44304;SDS011;30019;50.576;8.568;2024-03-23T03:59:44;15.73;;;8.93;;
44304;SDS011;30019;50.576;8.568;2024-03-23T04:02:10;14.35;;;8.57;;
44304;SDS011;30019;50.576;8.568;2024-03-23T04:04:36;12.25;;;7.63;;
44304;SDS011;30019;50.576;8.568;2024-03-23T04:07:02;13.10;;;7.22;;
44304;SDS011;30019;50.576;8.568;2024-03-23T04:09:30;9.00;;;4.85;;
44304;SDS011;30019;50.576;8.568;2024-03-23T04:11:56;7.00;;;4.55;;
44304;SDS011;30019;50.576;8.568;2024-03-23T04:14:22;9.32;;;4.70;;
44304;SDS011;30019;50.576;8.568;2024-03-23T04:16:48;7.95;;;4.30;;
44304;SDS011;30019;50.576;8.568;2024-03-23T04:19:14;5.55;;;4.10;;
44304;SDS011;30019;50.576;8.568;2024-03-23T04:21:40;3.63;;;3.28;;
44304;SDS011;30019;50.576;8.568;2024-03-23T04:24:06;9.32;;;3.72;;
44304;SDS011;30019;50.576;8.568;2024-03-23T04:26:42;3.95;;;3.17;;
44304;SDS011;30019;50.576;8.568;2024-03-23T04:29:08;2.70;;;2.50;;
44304;SDS011;30019;50.576;8.568;2024-03-23T04:31:34;2.40;;;2.00;;
44304;SDS011;30019;50.576;8.568;2024-03-23T04:34:03;2.30;;;2.08;;
44304;SDS011;30019;50.576;8.568;2024-03-23T04:36:29;2.10;;;1.90;;
44304;SDS011;30019;50.576;8.568;2024-03-23T04:38:56;4.00;;;2.03;;
44304;SDS011;30019;50.576;8.568;2024-03-23T04:41:22;2.20;;;1.77;;
44304;SDS011;30019;50.576;8.568;2024-03-23T04:43:48;2.97;;;1.90;;
44304;SDS011;30019;50.576;8.568;2024-03-23T04:46:14;3.70;;;2.05;;
44304;SDS011;30019;50.576;8.568;2024-03-23T04:48:40;2.00;;;1.80;;
44304;SDS011;30019;50.576;8.568;2024-03-23T04:51:06;1.70;;;1.60;;
44304;SDS011;30019;50.576;8.568;2024-03-23T04:53:32;4.10;;;1.80;;
44304;SDS011;30019;50.576;8.568;2024-03-23T04:55:58;2.85;;;1.80;;
44304;SDS011;30019;50.576;8.568;2024-03-23T04:58:24;3.72;;;1.65;;
44304;SDS011;30019;50.576;8.568;2024-03-23T05:00:54;1.48;;;1.38;;
44304;SDS011;30019;50.576;8.568;2024-03-23T05:03:21;2.35;;;1.35;;
44304;SDS011;30019;50.576;8.568;2024-03-23T05:05:47;3.05;;;1.52;;
44304;SDS011;30019;50.576;8.568;2024-03-23T05:08:14;1.88;;;1.70;;
44304;SDS011;30019;50.576;8.568;2024-03-23T05:10:41;2.00;;;1.77;;
44304;SDS011;30019;50.576;8.568;2024-03-23T05:13:07;2.33;;;1.40;;
44304;SDS011;30019;50.576;8.568;2024-03-23T05:15:33;1.63;;;1.30;;
44304;SDS011;30019;50.576;8.568;2024-03-23T05:18:00;2.42;;;1.65;;
44304;SDS011;30019;50.576;8.568;2024-03-23T05:20:26;1.90;;;1.33;;
44304;SDS011;30019;50.576;8.568;2024-03-23T05:22:52;3.03;;;0.93;;
44304;SDS011;30019;50.576;8.568;2024-03-23T05:25:18;1.15;;;1.10;;
44304;SDS011;30019;50.576;8.568;2024-03-23T05:27:44;1.00;;;1.00;;
44304;SDS011;30019;50.576;8.568;2024-03-23T05:30:10;0.60;;;0.60;;
44304;SDS011;30019;50.576;8.568;2024-03-23T05:32:36;0.60;;;0.60;;
44304;SDS011;30019;50.576;8.568;2024-03-23T05:35:05;0.70;;;0.70;;
44304;SDS011;30019;50.576;8.568;2024-03-23T05:37:32;1.05;;;0.80;;
44304;SDS011;30019;50.576;8.568;2024-03-23T05:39:59;1.02;;;1.00;;
44304;SDS011;30019;50.576;8.568;2024-03-23T05:42:25;1.02;;;0.95;;
44304;SDS011;30019;50.576;8.568;2024-03-23T05:44:51;0.80;;;0.80;;
44304;SDS011;30019;50.576;8.568;2024-03-23T05:47:17;1.50;;;0.73;;
44304;SDS011;30019;50.576;8.568;2024-03-23T05:49:45;0.77;;;0.77;;
44304;SDS011;30019;50.576;8.568;2024-03-23T05:52:11;0.88;;;0.88;;
44304;SDS011;30019;50.576;8.568;2024-03-23T05:54:37;0.95;;;0.95;;
44304;SDS011;30019;50.576;8.568;2024-03-23T05:57:03;1.55;;;0.88;;
44304;SDS011;30019;50.576;8.568;2024-03-23T05:59:29;3.83;;;0.82;;
44304;SDS011;30019;50.576;8.568;2024-03-23T06:01:56;1.00;;;0.90;;
44304;SDS011;30019;50.576;8.568;2024-03-23T06:04:22;0.93;;;0.90;;
44304;SDS011;30019;50.576;8.568;2024-03-23T06:06:48;2.33;;;0.73;;
44304;SDS011;30019;50.576;8.568;2024-03-23T06:09:14;2.65;;;1.00;;
44304;SDS011;30019;50.576;8.568;2024-03-23T06:11:40;1.67;;;1.08;;
44304;SDS011;30019;50.576;8.568;2024-03-23T06:14:06;1.05;;;0.80;;
44304;SDS011;30019;50.576;8.568;2024-03-23T06:16:32;1.05;;;1.05;;
44304;SDS011;30019;50.576;8.568;2024-03-23T06:18:58;1.10;;;1.10;;
44304;SDS011;30019;50.576;8.568;2024-03-23T06:21:25;2.22;;;1.02;;
44304;SDS011;30019;50.576;8.568;2024-03-23T06:23:51;1.27;;;1.10;;
44304;SDS011;30019;50.576;8.568;2024-03-23T06:26:20;1.95;;;1.35;;
44304;SDS011;30019;50.576;8.568;2024-03-23T06:28:47;1.40;;;1.20;;
44304;SDS011;30019;50.576;8.568;2024-03-23T06:31:13;1.48;;;1.38;;
44304;SDS011;30019;50.576;8.568;2024-03-23T06:33:39;3.22;;;2.08;;
44304;SDS011;30019;50.576;8.568;2024-03-23T06:36:11;3.47;;;1.90;;
44304;SDS011;30019;50.576;8.568;2024-03-23T06:38:37;3.72;;;1.58;;
44304;SDS011;30019;50.576;8.568;2024-03-23T06:41:06;3.65;;;1.80;;
44304;SDS011;30019;50.576;8.568;2024-03-23T06:43:32;2.78;;;2.28;;
44304;SDS011;30019;50.576;8.568;2024-03-23T06:45:58;1.75;;;1.65;;
44304;SDS011;30019;50.576;8.568;2024-03-23T06:48:24;6.75;;;2.03;;
44304;SDS011;30019;50.576;8.568;2024-03-23T06:50:54;3.45;;;2.08;;
44304;SDS011;30019;50.576;8.568;2024-03-23T06:53:20;6.15;;;3.13;;
44304;SDS011;30019;50.576;8.568;2024-03-23T06:55:49;5.95;;;2.58;;
44304;SDS011;30019;50.576;8.568;2024-03-23T06:58:16;14.75;;;5.32;;
44304;SDS011;30019;50.576;8.568;2024-03-23T07:00:42;8.00;;;4.07;;
44304;SDS011;30019;50.576;8.568;2024-03-23T07:03:08;7.78;;;3.30;;
44304;SDS011;30019;50.576;8.568;2024-03-23T07:05:33;3.08;;;2.03;;
44304;SDS011;30019;50.576;8.568;2024-03-23T07:08:00;7.97;;;3.80;;
44304;SDS011;30019;50.576;8.568;2024-03-23T07:10:26;2.33;;;2.10;;
44304;SDS011;30019;50.576;8.568;2024-03-23T07:12:52;2.28;;;2.08;;
44304;SDS011;30019;50.576;8.568;2024-03-23T07:15:18;3.78;;;1.70;;
44304;SDS011;30019;50.576;8.568;2024-03-23T07:17:46;4.32;;;2.15;;
44304;SDS011;30019;50.576;8.568;2024-03-23T07:20:12;7.53;;;2.45;;
44304;SDS011;30019;50.576;8.568;2024-03-23T07:22:38;2.75;;;2.15;;
44304;SDS011;30019;50.576;8.568;2024-03-23T07:25:05;4.88;;;2.80;;
44304;SDS011;30019;50.576;8.568;2024-03-23T07:27:31;5.93;;;2.65;;
44304;SDS011;30019;50.576;8.568;2024-03-23T07:29:57;6.72;;;2.40;;
44304;SDS011;30019;50.576;8.568;2024-03-23T07:32:23;5.55;;;2.28;;
44304;SDS011;30019;50.576;8.568;2024-03-23T07:34:51;5.55;;;2.83;;
44304;SDS011;30019;50.576;8.568;2024-03-23T07:37:18;6.60;;;3.10;;
44304;SDS011;30019;50.576;8.568;2024-03-23T07:39:44;7.90;;;3.47;;
44304;SDS011;30019;50.576;8.568;2024-03-23T07:42:10;7.03;;;2.92;;
44304;SDS011;30019;50.576;8.568;2024-03-23T07:44:36;9.93;;;3.40;;
44304;SDS011;30019;50.576;8.568;2024-03-23T07:47:03;4.70;;;3.13;;
44304;SDS011;30019;50.576;8.568;2024-03-23T07:49:29;6.20;;;3.25;;
44304;SDS011;30019;50.576;8.568;2024-03-23T07:51:55;9.15;;;4.35;;
44304;SDS011;30019;50.576;8.568;2024-03-23T07:54:21;8.80;;;4.97;;
44304;SDS011;30019;50.576;8.568;2024-03-23T07:56:47;11.00;;;4.72;;
44304;SDS011;30019;50.576;8.568;2024-03-23T07:59:13;10.80;;;5.53;;
44304;SDS011;30019;50.576;8.568;2024-03-23T08:01:39;12.35;;;6.47;;
44304;SDS011;30019;50.576;8.568;2024-03-23T08:04:05;11.68;;;6.15;;
44304;SDS011;30019;50.576;8.568;2024-03-23T08:06:31;14.23;;;6.78;;
44304;SDS011;30019;50.576;8.568;2024-03-23T08:08:57;13.45;;;6.47;;
44304;SDS011;30019;50.576;8.568;2024-03-23T08:11:28;17.67;;;8.07;;
44304;SDS011;30019;50.576;8.568;2024-03-23T08:13:54;13.43;;;7.78;;
44304;SDS011;30019;50.576;8.568;2024-03-23T08:16:21;13.88;;;7.70;;
44304;SDS011;30019;50.576;8.568;2024-03-23T08:18:47;19.80;;;7.95;;
44304;SDS011;30019;50.576;8.568;2024-03-23T08:21:13;15.50;;;7.32;;
44304;SDS011;30019;50.576;8.568;2024-03-23T08:23:39;13.50;;;7.78;;
44304;SDS011;30019;50.576;8.568;2024-03-23T08:26:06;11.27;;;7.75;;
44304;SDS011;30019;50.576;8.568;2024-03-23T08:28:33;23.75;;;8.95;;
44304;SDS011;30019;50.576;8.568;2024-03-23T08:31:03;17.17;;;8.88;;
44304;SDS011;30019;50.576;8.568;2024-03-23T08:33:32;16.48;;;8.48;;
44304;SDS011;30019;50.576;8.568;2024-03-23T08:35:59;14.75;;;7.65;;
44304;SDS011;30019;50.576;8.568;2024-03-23T08:38:26;14.48;;;6.82;;
44304;SDS011;30019;50.576;8.568;2024-03-23T08:40:59;16.00;;;7.90;;
44304;SDS011;30019;50.576;8.568;2024-03-23T08:43:25;17.90;;;6.28;;
44304;SDS011;30019;50.576;8.568;2024-03-23T08:45:52;16.42;;;7.82;;
44304;SDS011;30019;50.576;8.568;2024-03-23T08:48:19;24.02;;;7.32;;
44304;SDS011;30019;50.576;8.568;2024-03-23T08:50:58;13.50;;;7.15;;
44304;SDS011;30019;50.576;8.568;2024-03-23T08:53:24;21.80;;;7.95;;
44304;SDS011;30019;50.576;8.568;2024-03-23T08:55:53;19.35;;;7.65;;
44304;SDS011;30019;50.576;8.568;2024-03-23T08:58:19;18.77;;;7.60;;
44304;SDS011;30019;50.576;8.568;2024-03-23T09:00:45;14.63;;;7.68;;
44304;SDS011;30019;50.576;8.568;2024-03-23T09:03:12;18.88;;;7.28;;
44304;SDS011;30019;50.576;8.568;2024-03-23T09:05:40;23.58;;;6.40;;
44304;SDS011;30019;50.576;8.568;2024-03-23T09:08:06;15.18;;;5.80;;
44304;SDS011;30019;50.576;8.568;2024-03-23T09:10:39;14.93;;;4.80;;
44304;SDS011;30019;50.576;8.568;2024-03-23T09:13:05;12.00;;;3.88;;
44304;SDS011;30019;50.576;8.568;2024-03-23T09:15:35;20.35;;;5.18;;
44304;SDS011;30019;50.576;8.568;2024-03-23T09:18:01;16.27;;;4.40;;
44304;SDS011;30019;50.576;8.568;2024-03-23T09:20:27;15.55;;;4.50;;
44304;SDS011;30019;50.576;8.568;2024-03-23T09:22:53;13.38;;;4.70;;
44304;SDS011;30019;50.576;8.568;2024-03-23T09:25:19;14.80;;;3.67;;
44304;SDS011;30019;50.576;8.568;2024-03-23T09:27:46;11.77;;;3.50;;
44304;SDS011;30019;50.576;8.568;2024-03-23T09:30:12;8.65;;;3.47;;
44304;SDS011;30019;50.576;8.568;2024-03-23T09:32:39;18.73;;;4.63;;
44304;SDS011;30019;50.576;8.568;2024-03-23T09:35:05;18.33;;;3.53;;
44304;SDS011;30019;50.576;8.568;2024-03-23T09:37:31;12.23;;;3.72;;
44304;SDS011;30019;50.576;8.568;2024-03-23T09:39:57;11.85;;;3.78;;
44304;SDS011;30019;50.576;8.568;2024-03-23T09:42:23;15.38;;;3.38;;
44304;SDS011;30019;50.576;8.568;2024-03-23T09:44:50;7.72;;;3.47;;
44304;SDS011;30019;50.576;8.568;2024-03-23T09:47:16;10.65;;;2.92;;
44304;SDS011;30019;50.576;8.568;2024-03-23T09:49:42;7.30;;;3.00;;
44304;SDS011;30019;50.576;8.568;2024-03-23T09:52:09;12.23;;;3.67;;
44304;SDS011;30019;50.576;8.568;2024-03-23T09:54:35;11.15;;;3.15;;
44304;SDS011;30019;50.576;8.568;2024-03-23T09:57:01;11.23;;;2.92;;
44304;SDS011;30019;50.576;8.568;2024-03-23T09:59:27;10.90;;;2.72;;
44304;SDS011;30019;50.576;8.568;2024-03-23T10:01:53;15.13;;;2.85;;
44304;SDS011;30019;50.576;8.568;2024-03-23T10:04:38;8.07;;;3.15;;
44304;SDS011;30019;50.576;8.568;2024-03-23T10:07:11;11.25;;;2.70;;
44304;SDS011;30019;50.576;8.568;2024-03-23T10:09:37;9.70;;;2.35;;
44304;SDS011;30019;50.576;8.568;2024-03-23T10:12:10;9.52;;;2.63;;
44304;SDS011;30019;50.576;8.568;2024-03-23T10:14:40;8.40;;;3.38;;
44304;SDS011;30019;50.576;8.568;2024-03-23T10:17:16;6.07;;;2.42;;
44304;SDS011;30019;50.576;8.568;2024-03-23T10:19:45;10.23;;;4.07;;
44304;SDS011;30019;50.576;8.568;2024-03-23T10:22:19;4.43;;;2.03;;
44304;SDS011;30019;50.576;8.568;2024-03-23T10:24:46;4.75;;;2.22;;
44304;SDS011;30019;50.576;8.568;2024-03-23T10:27:15;4.70;;;2.63;;
44304;SDS011;30019;50.576;8.568;2024-03-23T10:29:42;9.02;;;2.17;;
44304;SDS011;30019;50.576;8.568;2024-03-23T10:32:12;4.13;;;2.20;;
44304;SDS011;30019;50.576;8.568;2024-03-23T10:34:39;8.70;;;2.60;;
44304;SDS011;30019;50.576;8.568;2024-03-23T10:37:05;10.98;;;4.30;;
44304;SDS011;30019;50.576;8.568;2024-03-23T10:39:35;11.30;;;2.70;;
44304;SDS011;30019;50.576;8.568;2024-03-23T10:42:02;9.35;;;3.47;;
44304;SDS011;30019;50.576;8.568;2024-03-23T10:44:29;12.88;;;2.95;;
44304;SDS011;30019;50.576;8.568;2024-03-23T10:46:56;7.05;;;2.88;;
44304;SDS011;30019;50.576;8.568;2024-03-23T10:49:25;11.35;;;3.90;;
44304;SDS011;30019;50.576;8.568;2024-03-23T10:51:51;7.30;;;3.30;;
44304;SDS011;30019;50.576;8.568;2024-03-23T10:54:18;5.28;;;2.50;;
44304;SDS011;30019;50.576;8.568;2024-03-23T10:56:44;7.72;;;2.22;;
44304;SDS011;30019;50.576;8.568;2024-03-23T10:59:11;8.07;;;3.03;;
44304;SDS011;30019;50.576;8.568;2024-03-23T11:01:53;7.47;;;3.17;;
44304;SDS011;30019;50.576;8.568;2024-03-23T11:04:29;8.38;;;2.72;;
44304;SDS011;30019;50.576;8.568;2024-03-23T11:06:55;8.43;;;2.70;;
44304;SDS011;30019;50.576;8.568;2024-03-23T11:09:43;11.27;;;2.90;;
44304;SDS011;30019;50.576;8.568;2024-03-23T11:14:48;8.40;;;2.92;;
44304;SDS011;30019;50.576;8.568;2024-03-23T11:17:18;12.10;;;3.00;;
44304;SDS011;30019;50.576;8.568;2024-03-23T11:19:46;7.80;;;2.53;;
44304;SDS011;30019;50.576;8.568;2024-03-23T11:22:37;9.30;;;2.92;;
44304;SDS011;30019;50.576;8.568;2024-03-23T11:25:16;3.65;;;2.70;;
44304;SDS011;30019;50.576;8.568;2024-03-23T11:27:43;10.23;;;3.88;;
44304;SDS011;30019;50.576;8.568;2024-03-23T11:30:14;2.90;;;2.05;;
44304;SDS011;30019;50.576;8.568;2024-03-23T11:32:40;7.90;;;2.42;;
44304;SDS011;30019;50.576;8.568;2024-03-23T11:35:07;1.98;;;1.83;;
44304;SDS011;30019;50.576;8.568;2024-03-23T11:37:35;5.15;;;2.10;;
44304;SDS011;30019;50.576;8.568;2024-03-23T11:40:01;5.05;;;2.42;;
44304;SDS011;30019;50.576;8.568;2024-03-23T11:42:27;8.35;;;2.85;;
44304;SDS011;30019;50.576;8.568;2024-03-23T11:44:53;4.47;;;2.35;;
44304;SDS011;30019;50.576;8.568;2024-03-23T11:47:19;2.85;;;2.30;;
44304;SDS011;30019;50.576;8.568;2024-03-23T11:49:45;3.97;;;2.20;;
44304;SDS011;30019;50.576;8.568;2024-03-23T11:52:11;4.57;;;1.90;;
44304;SDS011;30019;50.576;8.568;2024-03-23T11:54:37;4.60;;;1.90;;
44304;SDS011;30019;50.576;8.568;2024-03-23T11:57:04;2.58;;;1.50;;
44304;SDS011;30019;50.576;8.568;2024-03-23T11:59:33;4.65;;;1.90;;
44304;SDS011;30019;50.576;8.568;2024-03-23T12:01:59;7.63;;;1.90;;
44304;SDS011;30019;50.576;8.568;2024-03-23T12:04:26;3.70;;;1.92;;
44304;SDS011;30019;50.576;8.568;2024-03-23T12:07:08;7.80;;;2.58;;
44304;SDS011;30019;50.576;8.568;2024-03-23T12:12:05;4.28;;;2.13;;
44304;SDS011;30019;50.576;8.568;2024-03-23T12:14:31;9.82;;;2.60;;
44304;SDS011;30019;50.576;8.568;2024-03-23T12:17:06;5.13;;;1.98;;
44304;SDS011;30019;50.576;8.568;2024-03-23T12:19:32;8.85;;;3.35;;
44304;SDS011;30019;50.576;8.568;2024-03-23T12:21:58;10.40;;;4.53;;
44304;SDS011;30019;50.576;8.568;2024-03-23T12:24:25;6.78;;;2.88;;
44304;SDS011;30019;50.576;8.568;2024-03-23T12:26:51;9.35;;;6.05;;
44304;SDS011;30019;50.576;8.568;2024-03-23T12:29:17;5.70;;;1.92;;
44304;SDS011;30019;50.576;8.568;2024-03-23T12:31:45;2.90;;;1.30;;
44304;SDS011;30019;50.576;8.568;2024-03-23T12:34:11;6.13;;;1.52;;
44304;SDS011;30019;50.576;8.568;2024-03-23T12:36:37;2.35;;;1.52;;
44304;SDS011;30019;50.576;8.568;2024-03-23T12:39:03;1.95;;;1.00;;
44304;SDS011;30019;50.576;8.568;2024-03-23T12:41:29;2.10;;;1.52;;
44304;SDS011;30019;50.576;8.568;2024-03-23T12:43:55;3.13;;;1.35;;
44304;SDS011;30019;50.576;8.568;2024-03-23T12:46:21;3.88;;;1.83;;
44304;SDS011;30019;50.576;8.568;2024-03-23T12:48:48;2.72;;;1.60;;
44304;SDS011;30019;50.576;8.568;2024-03-23T12:51:14;2.60;;;1.58;;
44304;SDS011;30019;50.576;8.568;2024-03-23T12:53:40;3.33;;;1.42;;
44304;SDS011;30019;50.576;8.568;2024-03-23T12:56:06;1.60;;;1.25;;
44304;SDS011;30019;50.576;8.568;2024-03-23T12:58:32;1.58;;;1.13;;
44304;SDS011;30019;50.576;8.568;2024-03-23T13:00:58;1.20;;;0.88;;
44304;SDS011;30019;50.576;8.568;2024-03-23T13:03:24;2.17;;;1.25;;
44304;SDS011;30019;50.576;8.568;2024-03-23T13:05:53;3.80;;;1.45;;
44304;SDS011;30019;50.576;8.568;2024-03-23T13:08:19;4.80;;;1.58;;
44304;SDS011;30019;50.576;8.568;2024-03-23T13:10:45;5.03;;;1.70;;
44304;SDS011;30019;50.576;8.568;2024-03-23T13:13:12;1.92;;;1.77;;
44304;SDS011;30019;50.576;8.568;2024-03-23T13:15:38;4.70;;;2.30;;
44304;SDS011;30019;50.576;8.568;2024-03-23T13:18:04;2.42;;;1.85;;
44304;SDS011;30019;50.576;8.568;2024-03-23T13:20:30;3.60;;;2.75;;
44304;SDS011;30019;50.576;8.568;2024-03-23T13:22:56;4.13;;;2.00;;
44304;SDS011;30019;50.576;8.568;2024-03-23T13:25:22;5.32;;;2.53;;
44304;SDS011;30019;50.576;8.568;2024-03-23T13:27:48;2.03;;;1.83;;
44304;SDS011;30019;50.576;8.568;2024-03-23T13:30:14;6.07;;;2.00;;
44304;SDS011;30019;50.576;8.568;2024-03-23T13:32:40;2.20;;;1.80;;
44304;SDS011;30019;50.576;8.568;2024-03-23T13:35:07;2.42;;;1.50;;
44304;SDS011;30019;50.576;8.568;2024-03-23T13:37:33;1.60;;;1.50;;
44304;SDS011;30019;50.576;8.568;2024-03-23T13:39:59;3.60;;;1.30;;
44304;SDS011;30019;50.576;8.568;2024-03-23T13:42:25;2.45;;;1.40;;
44304;SDS011;30019;50.576;8.568;2024-03-23T13:44:52;2.55;;;1.45;;
44304;SDS011;30019;50.576;8.568;2024-03-23T13:47:18;10.43;;;1.73;;
44304;SDS011;30019;50.576;8.568;2024-03-23T13:49:44;2.85;;;1.30;;
44304;SDS011;30019;50.576;8.568;2024-03-23T13:52:11;3.55;;;1.88;;
44304;SDS011;30019;50.576;8.568;2024-03-23T13:54:37;1.60;;;1.45;;
44304;SDS011;30019;50.576;8.568;2024-03-23T13:57:03;2.92;;;1.70;;
44304;SDS011;30019;50.576;8.568;2024-03-23T13:59:29;3.10;;;2.03;;
44304;SDS011;30019;50.576;8.568;2024-03-23T14:01:55;3.40;;;1.63;;
44304;SDS011;30019;50.576;8.568;2024-03-23T14:04:21;4.45;;;1.63;;
44304;SDS011;30019;50.576;8.568;2024-03-23T14:06:48;2.35;;;1.50;;
44304;SDS011;30019;50.576;8.568;2024-03-23T14:09:14;4.07;;;2.40;;
44304;SDS011;30019;50.576;8.568;2024-03-23T14:11:45;2.50;;;2.07;;
44304;SDS011;30019;50.576;8.568;2024-03-23T14:14:11;3.10;;;1.60;;
44304;SDS011;30019;50.576;8.568;2024-03-23T14:16:37;3.33;;;2.50;;
44304;SDS011;30019;50.576;8.568;2024-03-23T14:19:03;4.22;;;1.80;;
44304;SDS011;30019;50.576;8.568;2024-03-23T14:21:32;6.13;;;2.03;;
44304;SDS011;30019;50.576;8.568;2024-03-23T14:23:59;2.58;;;1.63;;
44304;SDS011;30019;50.576;8.568;2024-03-23T14:26:26;3.75;;;1.75;;
44304;SDS011;30019;50.576;8.568;2024-03-23T14:28:52;4.82;;;2.00;;
44304;SDS011;30019;50.576;8.568;2024-03-23T14:31:18;2.78;;;1.80;;
44304;SDS011;30019;50.576;8.568;2024-03-23T14:33:44;1.75;;;1.60;;
44304;SDS011;30019;50.576;8.568;2024-03-23T14:36:14;3.25;;;2.10;;
44304;SDS011;30019;50.576;8.568;2024-03-23T14:38:40;5.10;;;2.38;;
44304;SDS011;30019;50.576;8.568;2024-03-23T14:41:06;3.00;;;1.98;;
44304;SDS011;30019;50.576;8.568;2024-03-23T14:43:32;3.33;;;2.95;;
44304;SDS011;30019;50.576;8.568;2024-03-23T14:46:14;5.30;;;3.47;;
44304;SDS011;30019;50.576;8.568;2024-03-23T14:48:41;5.15;;;2.60;;
44304;SDS011;30019;50.576;8.568;2024-03-23T14:51:07;7.40;;;2.40;;
44304;SDS011;30019;50.576;8.568;2024-03-23T14:53:34;2.67;;;2.47;;
44304;SDS011;30019;50.576;8.568;2024-03-23T14:56:00;5.57;;;2.40;;
44304;SDS011;30019;50.576;8.568;2024-03-23T14:58:27;7.55;;;3.25;;
44304;SDS011;30019;50.576;8.568;2024-03-23T15:00:53;3.92;;;2.33;;
44304;SDS011;30019;50.576;8.568;2024-03-23T15:03:25;7.15;;;3.40;;
44304;SDS011;30019;50.576;8.568;2024-03-23T15:05:54;5.50;;;4.05;;
44304;SDS011;30019;50.576;8.568;2024-03-23T15:08:21;9.75;;;4.18;;
44304;SDS011;30019;50.576;8.568;2024-03-23T15:10:47;4.43;;;4.03;;
44304;SDS011;30019;50.576;8.568;2024-03-23T15:13:13;5.78;;;3.03;;
44304;SDS011;30019;50.576;8.568;2024-03-23T15:15:43;6.05;;;3.30;;
44304;SDS011;30019;50.576;8.568;2024-03-23T15:18:12;10.40;;;4.78;;
44304;SDS011;30019;50.576;8.568;2024-03-23T15:20:39;7.90;;;3.47;;
44304;SDS011;30019;50.576;8.568;2024-03-23T15:23:06;9.57;;;4.30;;
44304;SDS011;30019;50.576;8.568;2024-03-23T15:25:32;7.05;;;2.63;;
44304;SDS011;30019;50.576;8.568;2024-03-23T15:27:58;9.82;;;3.22;;
44304;SDS011;30019;50.576;8.568;2024-03-23T15:30:25;7.68;;;3.88;;
44304;SDS011;30019;50.576;8.568;2024-03-23T15:32:51;3.53;;;3.08;;
44304;SDS011;30019;50.576;8.568;2024-03-23T15:35:17;7.43;;;3.10;;
44304;SDS011;30019;50.576;8.568;2024-03-23T15:37:44;4.15;;;2.50;;